Airport View

Enter AWOS ICAO identifier for current METAR.

ex. KFNL

KFVE 262253Z AUTO 05003KT 3SM BR BKN004 OVC009 01/M01 A2944 RMK AO2 SLP977 I1001 T00061006

26 Jan 2020 23:26

Frequency: 135.725

Phone: 207-543-7456

Other Area AWOS: KFTK - CYSL - CWIY - KCAR

TAF KFVE 261727Z 2618/2718 09008KT 2SM -SN OVC003 FM270000 03005KT 1SM -SN OVC003 FM271100 27005KT 2SM -SN OVC008 FM271700 29006KT 6SM -SN OVC010